Time;durP1;ratioP1;P1;durP2;ratioP2;P2;SDS_P1;SDS_P2;PMS_P1;PMS_P2;Temp;Humidity;BMP_temperature;BMP_pressure;BME280_temperature;BME280_humidity;BME280_pressure;Samples;Min_cycle;Max_cycle;Signal;HPM_P1;HPM_P2
2022/05/02 00:02:07;;;;;;;26.57;18.93;;;;;;;;;;5093855;28;20473;-72
2022/05/02 00:04:34;;;;;;;26.80;19.70;;;;;;;;;;5093634;28;20455;-72
2022/05/02 00:07:01;;;;;;;27.10;20.97;;;;;;;;;;5093518;28;20490;-72
2022/05/02 00:09:28;;;;;;;31.33;23.00;;;;;;;;;;5093673;28;20470;-72
2022/05/02 00:11:56;;;;;;;31.60;22.20;;;;;;;;;;5093596;28;20454;-72
2022/05/02 00:14:24;;;;;;;30.50;21.53;;;;;;;;;;5093532;28;20966;-72
2022/05/02 00:16:51;;;;;;;33.60;21.17;;;;;;;;;;5093668;28;20463;-72
2022/05/02 00:19:18;;;;;;;28.03;20.80;;;;;;;;;;5093537;28;20471;-72
2022/05/02 00:21:46;;;;;;;28.17;19.30;;;;;;;;;;5092252;28;20446;-71
2022/05/02 00:24:13;;;;;;;28.00;19.23;;;;;;;;;;5093060;28;20467;-71
2022/05/02 00:26:41;;;;;;;31.93;22.90;;;;;;;;;;5093367;28;20485;-71
2022/05/02 00:29:08;;;;;;;28.00;21.27;;;;;;;;;;5093133;28;20473;-72
2022/05/02 00:31:37;;;;;;;25.70;18.27;;;;;;;;;;5093351;28;20959;-71
2022/05/02 00:34:04;;;;;;;24.53;18.60;;;;;;;;;;5092959;28;20451;-72
2022/05/02 00:36:31;;;;;;;27.57;20.50;;;;;;;;;;5093231;28;20451;-71
2022/05/02 00:38:59;;;;;;;34.20;22.30;;;;;;;;;;5093324;28;20496;-71
2022/05/02 00:41:27;;;;;;;25.83;19.93;;;;;;;;;;5093280;28;20898;-72
2022/05/02 00:43:55;;;;;;;29.37;19.90;;;;;;;;;;5093003;28;20462;-72
2022/05/02 00:46:23;;;;;;;30.37;19.67;;;;;;;;;;5092972;28;20487;-71
2022/05/02 00:48:52;;;;;;;27.63;19.93;;;;;;;;;;5093048;28;20462;-71
2022/05/02 00:51:19;;;;;;;29.70;21.07;;;;;;;;;;5093174;28;21093;-71
2022/05/02 00:53:48;;;;;;;32.27;23.27;;;;;;;;;;5092936;28;20963;-71
2022/05/02 00:56:16;;;;;;;27.97;21.90;;;;;;;;;;5092948;28;20447;-71
2022/05/02 00:58:44;;;;;;;26.03;20.27;;;;;;;;;;5092983;28;20467;-71
2022/05/02 01:01:11;;;;;;;27.73;20.87;;;;;;;;;;5092849;28;20457;-71
2022/05/02 01:03:38;;;;;;;24.67;18.80;;;;;;;;;;5092806;28;20462;-71
2022/05/02 01:08:54;;;;;;;26.20;18.70;;;;;;;;;;5093020;28;20504;-71
2022/05/02 01:11:21;;;;;;;28.43;20.30;;;;;;;;;;5092911;28;20477;-71
2022/05/02 01:13:48;;;;;;;29.97;21.30;;;;;;;;;;5092754;28;20462;-71
2022/05/02 01:16:23;;;;;;;27.40;19.90;;;;;;;;;;5092871;28;20458;-71
2022/05/02 01:18:51;;;;;;;32.67;21.43;;;;;;;;;;5092908;28;20477;-71
2022/05/02 01:21:21;;;;;;;26.27;20.20;;;;;;;;;;5092954;28;20478;-71
2022/05/02 01:23:51;;;;;;;30.67;20.30;;;;;;;;;;5092165;28;21061;-71
2022/05/02 01:26:18;;;;;;;24.17;18.77;;;;;;;;;;5092834;28;20947;-71
2022/05/02 01:28:46;;;;;;;25.53;19.43;;;;;;;;;;5092892;28;20474;-72
2022/05/02 01:31:13;;;;;;;29.37;21.13;;;;;;;;;;5092951;28;20947;-71
2022/05/02 01:33:40;;;;;;;26.90;19.90;;;;;;;;;;5094410;28;20943;-71
2022/05/02 01:36:08;;;;;;;30.80;20.83;;;;;;;;;;5096759;28;20620;-72
2022/05/02 01:38:37;;;;;;;26.93;19.40;;;;;;;;;;5096696;28;20508;-71
2022/05/02 01:41:04;;;;;;;26.00;19.73;;;;;;;;;;5096635;28;20867;-72
2022/05/02 01:43:32;;;;;;;28.27;21.17;;;;;;;;;;5096562;28;20461;-72
2022/05/02 01:45:59;;;;;;;29.00;21.10;;;;;;;;;;5096439;28;20442;-72
2022/05/02 01:48:26;;;;;;;29.43;21.40;;;;;;;;;;5096473;28;20491;-72
2022/05/02 01:50:53;;;;;;;28.60;19.20;;;;;;;;;;5096571;28;20454;-71
2022/05/02 01:53:20;;;;;;;33.00;22.40;;;;;;;;;;5096325;28;20443;-71
2022/05/02 01:55:49;;;;;;;31.13;21.00;;;;;;;;;;5096221;28;20450;-72
2022/05/02 01:58:16;;;;;;;28.30;21.07;;;;;;;;;;5096345;28;20458;-71
2022/05/02 02:00:43;;;;;;;31.70;21.23;;;;;;;;;;5096414;28;20991;-71
2022/05/02 02:03:10;;;;;;;29.13;20.87;;;;;;;;;;5096157;28;20852;-71
2022/05/02 02:05:48;;;;;;;30.10;20.83;;;;;;;;;;5096104;28;20861;-72
2022/05/02 02:08:16;;;;;;;31.13;22.40;;;;;;;;;;5095950;28;20486;-72
2022/05/02 02:10:43;;;;;;;29.90;21.57;;;;;;;;;;5096009;28;20473;-71
2022/05/02 02:13:12;;;;;;;31.50;21.03;;;;;;;;;;5095933;28;20463;-71
2022/05/02 02:15:39;;;;;;;31.17;21.97;;;;;;;;;;5095895;28;20987;-71
2022/05/02 02:18:06;;;;;;;32.87;21.57;;;;;;;;;;5095927;28;20450;-72
2022/05/02 02:20:33;;;;;;;29.40;20.90;;;;;;;;;;5095778;28;20481;-71
2022/05/02 02:23:00;;;;;;;30.87;21.70;;;;;;;;;;5095129;28;20975;-71
2022/05/02 02:25:27;;;;;;;29.87;21.40;;;;;;;;;;5095655;28;20446;-71
2022/05/02 02:27:55;;;;;;;30.20;20.90;;;;;;;;;;5095715;28;20485;-71
2022/05/02 02:30:23;;;;;;;32.60;22.53;;;;;;;;;;5095946;28;20466;-71
2022/05/02 02:32:50;;;;;;;30.53;20.83;;;;;;;;;;5095851;28;20451;-71
2022/05/02 02:35:20;;;;;;;34.23;20.90;;;;;;;;;;5095355;28;20459;-71
2022/05/02 02:37:47;;;;;;;32.30;21.47;;;;;;;;;;5095670;28;21039;-71
2022/05/02 02:40:14;;;;;;;30.47;21.13;;;;;;;;;;5095332;28;20475;-71
2022/05/02 02:42:41;;;;;;;29.07;21.73;;;;;;;;;;5095560;28;20450;-71
2022/05/02 02:45:09;;;;;;;27.80;20.87;;;;;;;;;;5093973;28;20831;-72
2022/05/02 02:47:37;;;;;;;28.00;20.10;;;;;;;;;;5095224;28;20482;-71
2022/05/02 02:50:05;;;;;;;28.87;21.20;;;;;;;;;;5095247;28;20844;-71
2022/05/02 02:52:32;;;;;;;30.37;21.83;;;;;;;;;;5095341;28;20458;-71
2022/05/02 02:54:59;;;;;;;29.00;21.73;;;;;;;;;;5095191;28;20458;-71
2022/05/02 02:57:26;;;;;;;30.60;21.80;;;;;;;;;;5095245;28;20446;-71
2022/05/02 02:59:53;;;;;;;31.57;22.40;;;;;;;;;;5094967;28;20482;-71
2022/05/02 03:02:20;;;;;;;26.17;18.43;;;;;;;;;;5095056;28;20867;-71
2022/05/02 03:07:33;;;;;;;23.23;18.03;;;;;;;;;;5094962;28;20531;-71
2022/05/02 03:10:01;;;;;;;26.23;18.03;;;;;;;;;;5094919;28;20477;-71
2022/05/02 03:12:28;;;;;;;26.57;18.63;;;;;;;;;;5094776;28;20501;-71
2022/05/02 03:14:55;;;;;;;24.00;18.23;;;;;;;;;;5094711;28;20454;-71
2022/05/02 03:17:22;;;;;;;26.27;18.30;;;;;;;;;;5094901;28;20451;-71
2022/05/02 03:19:51;;;;;;;24.30;18.30;;;;;;;;;;5094736;28;20478;-71
2022/05/02 03:22:18;;;;;;;28.80;20.00;;;;;;;;;;5094221;28;20455;-71
2022/05/02 03:24:45;;;;;;;24.50;18.77;;;;;;;;;;5094486;28;20473;-72
2022/05/02 03:27:12;;;;;;;24.37;17.50;;;;;;;;;;5094531;28;20486;-72
2022/05/02 03:29:40;;;;;;;24.47;17.97;;;;;;;;;;5094803;28;20466;-72
2022/05/02 03:32:07;;;;;;;23.20;17.93;;;;;;;;;;5094617;28;20948;-71
2022/05/02 03:34:34;;;;;;;22.83;17.37;;;;;;;;;;5094341;28;20450;-71
2022/05/02 03:37:02;;;;;;;31.40;19.30;;;;;;;;;;5094396;28;20462;-71
2022/05/02 03:39:30;;;;;;;26.50;19.13;;;;;;;;;;5094622;28;20994;-71
2022/05/02 03:41:57;;;;;;;23.03;17.83;;;;;;;;;;5094398;28;20458;-71
2022/05/02 03:44:24;;;;;;;21.47;17.27;;;;;;;;;;5094228;28;20450;-72
2022/05/02 03:46:51;;;;;;;30.97;20.43;;;;;;;;;;5094154;28;20454;-71
2022/05/02 03:49:18;;;;;;;22.27;18.20;;;;;;;;;;5094198;28;20470;-71
2022/05/02 03:51:45;;;;;;;27.93;20.63;;;;;;;;;;5094216;28;20443;-71
2022/05/02 03:54:14;;;;;;;24.80;17.67;;;;;;;;;;5093765;28;20451;-71
2022/05/02 03:56:41;;;;;;;23.40;18.93;;;;;;;;;;5093827;28;20458;-71
2022/05/02 03:59:08;;;;;;;23.63;18.20;;;;;;;;;;5093898;28;20462;-71
2022/05/02 04:01:38;;;;;;;22.40;16.37;;;;;;;;;;5094084;28;20477;-71
2022/05/02 04:04:06;;;;;;;30.63;18.53;;;;;;;;;;5093867;28;20455;-72
2022/05/02 04:06:33;;;;;;;23.13;17.43;;;;;;;;;;5093801;28;20451;-72
2022/05/02 04:09:00;;;;;;;22.50;18.07;;;;;;;;;;5093540;28;21034;-72
2022/05/02 04:11:29;;;;;;;22.50;16.10;;;;;;;;;;5094024;28;20451;-71
2022/05/02 04:13:56;;;;;;;24.97;20.30;;;;;;;;;;5093592;28;20459;-71
2022/05/02 04:16:23;;;;;;;31.30;21.70;;;;;;;;;;5093691;28;20457;-71
2022/05/02 04:18:50;;;;;;;33.90;22.17;;;;;;;;;;5093598;28;21002;-72
2022/05/02 04:21:17;;;;;;;27.67;19.60;;;;;;;;;;5093652;28;20961;-71
2022/05/02 04:23:45;;;;;;;32.37;20.30;;;;;;;;;;5092921;28;20520;-72
2022/05/02 04:26:12;;;;;;;28.13;19.20;;;;;;;;;;5093475;28;20824;-71
2022/05/02 04:28:40;;;;;;;27.13;20.50;;;;;;;;;;5093379;28;20495;-71
2022/05/02 04:31:07;;;;;;;25.77;19.17;;;;;;;;;;5093536;28;20450;-71
2022/05/02 04:33:34;;;;;;;29.00;20.50;;;;;;;;;;5093272;28;20458;-71
2022/05/02 04:36:01;;;;;;;27.23;18.90;;;;;;;;;;5093217;28;20450;-71
2022/05/02 04:38:30;;;;;;;30.20;18.70;;;;;;;;;;5093451;28;20451;-71
2022/05/02 04:40:57;;;;;;;29.70;19.40;;;;;;;;;;5093339;28;20454;-71
2022/05/02 04:43:24;;;;;;;30.03;21.70;;;;;;;;;;5093537;28;20913;-72
2022/05/02 04:45:53;;;;;;;28.60;19.10;;;;;;;;;;5093185;28;20453;-71
2022/05/02 04:48:20;;;;;;;25.10;17.57;;;;;;;;;;5091174;28;20486;-71
2022/05/02 04:50:47;;;;;;;20.37;15.87;;;;;;;;;;5073381;28;20492;-71
2022/05/02 04:53:14;;;;;;;15.97;14.10;;;;;;;;;;5072936;28;20447;-71
2022/05/02 04:55:42;;;;;;;19.33;14.70;;;;;;;;;;5072803;28;20463;-71
2022/05/02 04:58:09;;;;;;;21.53;16.30;;;;;;;;;;5072937;28;20506;-71
2022/05/02 05:00:36;;;;;;;26.97;18.43;;;;;;;;;;5072900;28;20995;-71
2022/05/02 05:03:05;;;;;;;30.90;21.53;;;;;;;;;;5072812;28;20961;-71
2022/05/02 05:05:34;;;;;;;26.50;19.77;;;;;;;;;;5072742;28;20852;-72
2022/05/02 05:08:01;;;;;;;24.60;18.53;;;;;;;;;;5073547;28;20584;-72
2022/05/02 05:10:28;;;;;;;24.70;17.83;;;;;;;;;;5076151;28;20834;-72
2022/05/02 05:13:06;;;;;;;23.80;17.43;;;;;;;;;;5096558;28;21006;-71
2022/05/02 05:18:38;;;;;;;28.80;18.57;;;;;;;;;;5096998;28;20425;-71
2022/05/02 05:21:07;;;;;;;19.67;16.10;;;;;;;;;;5096781;28;20456;-71
2022/05/02 05:23:44;;;;;;;20.37;16.07;;;;;;;;;;5096374;28;20459;-71
2022/05/02 05:26:14;;;;;;;16.00;13.80;;;;;;;;;;5096698;28;20442;-71
2022/05/02 05:28:57;;;;;;;20.90;15.13;;;;;;;;;;5096847;28;20481;-71
2022/05/02 05:31:30;;;;;;;24.13;15.00;;;;;;;;;;5096677;28;20486;-72
2022/05/02 05:34:03;;;;;;;17.57;14.50;;;;;;;;;;5096416;28;20940;-72
2022/05/02 05:36:35;;;;;;;19.13;15.37;;;;;;;;;;5096621;28;20948;-71
2022/05/02 05:39:04;;;;;;;20.07;14.07;;;;;;;;;;5096463;28;20861;-71
2022/05/02 05:41:37;;;;;;;15.90;13.97;;;;;;;;;;5096600;28;20550;-71
2022/05/02 05:44:16;;;;;;;18.10;14.93;;;;;;;;;;5096154;28;20853;-72
2022/05/02 05:46:50;;;;;;;22.10;15.43;;;;;;;;;;5096425;28;20802;-71
2022/05/02 05:49:24;;;;;;;17.77;14.30;;;;;;;;;;5096142;28;20864;-71
2022/05/02 05:51:56;;;;;;;20.93;14.73;;;;;;;;;;5096545;28;20946;-71
2022/05/02 05:54:32;;;;;;;20.40;15.60;;;;;;;;;;5096175;28;20458;-71
2022/05/02 05:57:04;;;;;;;15.70;13.40;;;;;;;;;;5095968;28;20835;-71
2022/05/02 05:59:34;;;;;;;19.67;14.53;;;;;;;;;;5096320;28;20466;-71
2022/05/02 06:02:05;;;;;;;20.80;15.77;;;;;;;;;;5096088;28;20948;-71
2022/05/02 06:04:34;;;;;;;18.17;15.67;;;;;;;;;;5096109;28;20474;-71
2022/05/02 06:07:01;;;;;;;18.87;15.83;;;;;;;;;;5096022;28;20451;-71
2022/05/02 06:09:30;;;;;;;22.07;18.00;;;;;;;;;;5096100;28;20518;-71
2022/05/02 06:11:58;;;;;;;22.57;18.60;;;;;;;;;;5096061;28;20450;-71
2022/05/02 06:14:27;;;;;;;24.50;20.20;;;;;;;;;;5096142;28;20541;-71
2022/05/02 06:19:41;;;;;;;20.40;16.90;;;;;;;;;;5095977;28;20520;-71
2022/05/02 06:22:09;;;;;;;23.67;18.40;;;;;;;;;;5095469;28;20462;-71
2022/05/02 06:24:38;;;;;;;18.80;15.53;;;;;;;;;;5095521;28;20545;-71
2022/05/02 06:27:06;;;;;;;21.30;15.67;;;;;;;;;;5095712;28;20820;-71
2022/05/02 06:29:35;;;;;;;20.43;16.97;;;;;;;;;;5093950;28;20867;-71
2022/05/02 06:32:07;;;;;;;19.83;14.40;;;;;;;;;;5095181;28;21027;-71
2022/05/02 06:34:34;;;;;;;17.83;15.20;;;;;;;;;;5095526;28;20450;-71
2022/05/02 06:37:16;;;;;;;20.00;15.90;;;;;;;;;;5095563;28;20450;-72
2022/05/02 06:39:53;;;;;;;19.23;15.90;;;;;;;;;;5092018;28;20471;-72
2022/05/02 06:42:23;;;;;;;22.90;17.10;;;;;;;;;;5095471;28;20438;-71
2022/05/02 06:45:01;;;;;;;27.50;16.40;;;;;;;;;;5092091;28;20490;-72
2022/05/02 06:47:32;;;;;;;18.73;15.90;;;;;;;;;;5094201;28;20907;-72
2022/05/02 06:49:59;;;;;;;21.50;17.60;;;;;;;;;;5094006;28;20503;-72
2022/05/02 06:52:32;;;;;;;26.43;18.33;;;;;;;;;;5093949;28;20529;-72
2022/05/02 06:55:09;;;;;;;27.50;20.67;;;;;;;;;;5093834;28;20454;-72
2022/05/02 06:57:42;;;;;;;22.60;18.30;;;;;;;;;;5093560;28;20461;-71
2022/05/02 07:00:14;;;;;;;23.90;18.60;;;;;;;;;;5093487;28;20897;-72
2022/05/02 07:02:56;;;;;;;23.07;18.80;;;;;;;;;;5094206;28;20551;-71
2022/05/02 07:05:27;;;;;;;23.63;17.67;;;;;;;;;;5080807;28;20533;-72
2022/05/02 07:08:02;;;;;;;22.63;18.53;;;;;;;;;;5093596;28;20492;-72
2022/05/02 07:10:33;;;;;;;23.60;17.80;;;;;;;;;;5094102;28;20473;-72
2022/05/02 07:13:04;;;;;;;19.67;17.47;;;;;;;;;;5093648;28;20885;-72
2022/05/02 07:15:39;;;;;;;22.80;17.47;;;;;;;;;;5093084;28;20820;-72
2022/05/02 07:18:08;;;;;;;20.67;18.03;;;;;;;;;;5072639;28;20443;-72
2022/05/02 07:20:51;;;;;;;20.10;17.00;;;;;;;;;;5073080;28;20471;-72
2022/05/02 07:23:26;;;;;;;17.43;15.70;;;;;;;;;;5072808;28;20516;-72
2022/05/02 07:25:58;;;;;;;18.47;15.37;;;;;;;;;;5085821;28;20450;-72
2022/05/02 07:28:31;;;;;;;16.67;14.97;;;;;;;;;;5094527;28;20514;-73
2022/05/02 07:30:59;;;;;;;17.13;15.47;;;;;;;;;;5093273;28;20450;-73
2022/05/02 07:33:31;;;;;;;16.97;15.17;;;;;;;;;;5094879;28;20941;-73
2022/05/02 07:35:58;;;;;;;18.47;15.97;;;;;;;;;;5094526;28;20482;-73
2022/05/02 07:38:28;;;;;;;18.03;16.13;;;;;;;;;;5094535;28;20829;-73
2022/05/02 07:43:42;;;;;;;19.40;17.50;;;;;;;;;;5094304;28;20439;-73
2022/05/02 07:46:11;;;;;;;17.13;15.53;;;;;;;;;;5094467;28;20454;-73
2022/05/02 07:48:41;;;;;;;20.80;18.70;;;;;;;;;;5094416;28;20479;-72
2022/05/02 07:51:09;;;;;;;19.10;17.10;;;;;;;;;;5094479;28;20802;-72
2022/05/02 07:53:37;;;;;;;21.07;18.77;;;;;;;;;;5094097;28;20501;-73
2022/05/02 07:56:08;;;;;;;21.80;18.97;;;;;;;;;;5094092;28;20450;-73
2022/05/02 07:58:36;;;;;;;23.20;19.57;;;;;;;;;;5094221;28;20446;-73
2022/05/02 08:01:03;;;;;;;25.43;20.80;;;;;;;;;;5094363;28;20939;-73
2022/05/02 08:03:30;;;;;;;21.20;18.80;;;;;;;;;;5094010;28;20847;-73
2022/05/02 08:06:00;;;;;;;22.13;19.57;;;;;;;;;;5093890;28;20447;-73
2022/05/02 08:08:33;;;;;;;22.13;19.63;;;;;;;;;;5093582;28;20455;-73
2022/05/02 08:11:07;;;;;;;25.80;21.03;;;;;;;;;;5094015;28;20473;-73
2022/05/02 08:13:43;;;;;;;26.20;19.00;;;;;;;;;;5093905;28;20430;-73
2022/05/02 08:16:14;;;;;;;24.73;20.67;;;;;;;;;;5093894;28;20458;-73
2022/05/02 08:18:50;;;;;;;23.40;19.27;;;;;;;;;;5093944;28;20459;-73
2022/05/02 08:21:19;;;;;;;18.27;16.37;;;;;;;;;;5093782;28;20838;-73
2022/05/02 08:29:36;;;;;;;19.33;17.53;;;;;;;;;;5093524;28;20513;-73
2022/05/02 08:32:08;;;;;;;22.10;17.60;;;;;;;;;;5093496;28;20875;-73
2022/05/02 08:34:38;;;;;;;17.63;15.83;;;;;;;;;;5093418;28;20951;-73
2022/05/02 08:37:12;;;;;;;19.80;16.27;;;;;;;;;;5093353;28;20457;-73
2022/05/02 08:39:42;;;;;;;16.30;14.47;;;;;;;;;;5093610;28;21040;-73
2022/05/02 08:42:20;;;;;;;19.60;16.13;;;;;;;;;;5092909;28;20462;-73
2022/05/02 08:45:05;;;;;;;18.00;16.30;;;;;;;;;;5092961;28;20950;-73
2022/05/02 08:47:56;;;;;;;20.07;17.17;;;;;;;;;;5093409;28;20447;-73
2022/05/02 08:50:29;;;;;;;18.23;16.00;;;;;;;;;;5093366;28;20915;-73
2022/05/02 08:53:29;;;;;;;21.83;17.50;;;;;;;;;;5093343;28;20482;-73
2022/05/02 08:56:16;;;;;;;18.27;16.30;;;;;;;;;;5093182;28;20447;-73
2022/05/02 08:58:53;;;;;;;22.17;17.23;;;;;;;;;;5093036;28;20474;-73
2022/05/02 09:01:37;;;;;;;20.83;17.37;;;;;;;;;;5093181;28;20437;-73
2022/05/02 09:04:15;;;;;;;19.87;17.77;;;;;;;;;;5092879;28;20455;-73
2022/05/02 09:07:08;;;;;;;17.80;16.07;;;;;;;;;;5093251;28;20451;-73
2022/05/02 09:09:49;;;;;;;19.17;16.50;;;;;;;;;;5093000;28;20490;-73
2022/05/02 09:12:35;;;;;;;19.73;16.80;;;;;;;;;;5093057;28;20427;-73
2022/05/02 09:15:12;;;;;;;20.43;17.90;;;;;;;;;;5092690;28;20453;-73
2022/05/02 09:18:09;;;;;;;20.73;17.17;;;;;;;;;;5093144;28;20442;-73
2022/05/02 09:20:48;;;;;;;22.90;18.00;;;;;;;;;;5093257;28;20987;-73
2022/05/02 09:23:36;;;;;;;18.30;16.47;;;;;;;;;;5092467;28;20454;-73
2022/05/02 09:26:18;;;;;;;18.63;16.10;;;;;;;;;;5092780;28;20986;-73
2022/05/02 09:28:51;;;;;;;17.00;15.30;;;;;;;;;;5092822;28;20971;-73
2022/05/02 09:31:19;;;;;;;17.33;15.50;;;;;;;;;;5093145;28;20458;-73
2022/05/02 09:33:51;;;;;;;17.23;15.33;;;;;;;;;;5092865;28;20833;-73
2022/05/02 09:36:25;;;;;;;17.70;15.73;;;;;;;;;;5092748;28;20947;-73
2022/05/02 09:38:54;;;;;;;19.03;16.00;;;;;;;;;;5092704;28;20467;-73
2022/05/02 09:41:30;;;;;;;19.83;15.63;;;;;;;;;;5092837;28;20450;-73
2022/05/02 09:49:47;;;;;;;19.97;14.27;;;;;;;;;;5092562;28;20489;-73
2022/05/02 09:52:15;;;;;;;17.90;15.00;;;;;;;;;;5092629;28;20493;-73
2022/05/02 09:57:46;;;;;;;19.13;17.03;;;;;;;;;;5096487;28;20417;-73
2022/05/02 10:03:10;;;;;;;19.27;16.13;;;;;;;;;;5096480;28;20511;-73
2022/05/02 10:05:39;;;;;;;20.97;18.30;;;;;;;;;;5096051;28;20447;-73
2022/05/02 10:08:10;;;;;;;23.50;16.87;;;;;;;;;;5096008;28;20451;-73
2022/05/02 10:10:41;;;;;;;21.77;19.47;;;;;;;;;;5096082;28;21123;-73
2022/05/02 10:13:18;;;;;;;19.03;16.03;;;;;;;;;;5096349;28;20923;-73
2022/05/02 10:15:53;;;;;;;22.37;18.67;;;;;;;;;;5096053;28;20442;-73
2022/05/02 10:18:35;;;;;;;16.90;14.87;;;;;;;;;;5096219;28;20446;-73
2022/05/02 10:21:07;;;;;;;16.60;14.23;;;;;;;;;;5096104;28;20465;-73
2022/05/02 10:23:46;;;;;;;14.33;13.03;;;;;;;;;;5095442;28;20474;-73
2022/05/02 10:26:19;;;;;;;16.33;13.30;;;;;;;;;;5096033;28;20951;-73
2022/05/02 10:29:02;;;;;;;16.50;14.80;;;;;;;;;;5095902;28;20846;-73
2022/05/02 10:31:30;;;;;;;17.43;13.70;;;;;;;;;;5096119;28;20446;-73
2022/05/02 10:34:01;;;;;;;15.97;14.40;;;;;;;;;;5095532;28;20458;-73
2022/05/02 10:36:30;;;;;;;16.10;14.60;;;;;;;;;;5095899;28;20955;-73
2022/05/02 10:39:01;;;;;;;18.27;16.47;;;;;;;;;;5095803;28;20873;-73
2022/05/02 10:41:36;;;;;;;20.50;15.90;;;;;;;;;;5095715;28;20450;-73
2022/05/02 10:44:05;;;;;;;17.30;15.60;;;;;;;;;;5095498;28;20458;-73
2022/05/02 10:46:33;;;;;;;22.93;19.67;;;;;;;;;;5095623;28;20936;-73
2022/05/02 10:49:03;;;;;;;17.93;15.63;;;;;;;;;;5095207;28;20477;-73
2022/05/02 10:51:35;;;;;;;18.37;16.47;;;;;;;;;;5095469;28;20450;-73
2022/05/02 10:54:10;;;;;;;17.40;14.97;;;;;;;;;;5095145;28;20477;-73
2022/05/02 10:56:41;;;;;;;16.03;14.30;;;;;;;;;;5095318;28;20503;-73
2022/05/02 10:59:11;;;;;;;15.20;13.80;;;;;;;;;;5095227;28;20482;-73
2022/05/02 11:01:58;;;;;;;14.00;12.60;;;;;;;;;;5095299;28;20451;-73
2022/05/02 11:04:30;;;;;;;12.57;11.27;;;;;;;;;;5095101;28;20999;-73
2022/05/02 11:07:05;;;;;;;14.13;12.07;;;;;;;;;;5094213;28;20459;-73
2022/05/02 11:09:37;;;;;;;12.10;11.00;;;;;;;;;;5095040;28;20478;-73
2022/05/02 11:12:07;;;;;;;11.50;10.40;;;;;;;;;;5094951;28;20482;-73
2022/05/02 11:14:43;;;;;;;11.33;10.23;;;;;;;;;;5094971;28;21011;-73
2022/05/02 11:17:16;;;;;;;12.63;11.50;;;;;;;;;;5094933;28;20462;-73
2022/05/02 11:22:52;;;;;;;21.73;13.07;;;;;;;;;;5032061;28;20971;-73
2022/05/02 11:25:21;;;;;;;12.73;11.53;;;;;;;;;;5032294;28;20457;-73
2022/05/02 11:27:59;;;;;;;12.70;11.37;;;;;;;;;;5062623;28;20473;-73
2022/05/02 11:30:28;;;;;;;10.07;9.07;;;;;;;;;;5094498;28;20482;-73
2022/05/02 11:33:07;;;;;;;13.13;11.63;;;;;;;;;;5094788;28;20459;-73
2022/05/02 11:35:34;;;;;;;15.80;14.37;;;;;;;;;;5094389;28;20558;-73
2022/05/02 11:38:07;;;;;;;13.67;12.43;;;;;;;;;;5094432;28;20453;-73
2022/05/02 11:40:36;;;;;;;12.70;11.53;;;;;;;;;;5094696;28;20466;-73
2022/05/02 11:43:04;;;;;;;12.60;11.50;;;;;;;;;;5094336;28;20967;-73
2022/05/02 11:45:44;;;;;;;17.67;15.87;;;;;;;;;;5094295;28;20446;-73
2022/05/02 11:48:35;;;;;;;22.67;17.03;;;;;;;;;;5094308;28;20446;-73
2022/05/02 11:51:04;;;;;;;12.50;11.40;;;;;;;;;;5078838;28;20490;-73
2022/05/02 11:53:34;;;;;;;10.83;9.83;;;;;;;;;;5094077;28;20450;-73
2022/05/02 11:56:04;;;;;;;12.07;10.87;;;;;;;;;;5094137;28;20810;-73
2022/05/02 11:58:38;;;;;;;11.07;10.17;;;;;;;;;;5094097;28;20940;-73
2022/05/02 12:01:08;;;;;;;10.20;9.20;;;;;;;;;;5094528;28;20851;-73
2022/05/02 12:03:49;;;;;;;16.37;12.93;;;;;;;;;;5094174;28;20904;-73
2022/05/02 12:06:17;;;;;;;24.27;17.77;;;;;;;;;;5094050;28;20451;-73
2022/05/02 12:08:47;;;;;;;13.60;8.93;;;;;;;;;;5094169;28;20547;-73
2022/05/02 12:11:14;;;;;;;12.90;11.50;;;;;;;;;;5093826;28;20491;-73
2022/05/02 12:13:45;;;;;;;10.17;9.27;;;;;;;;;;5093816;28;20451;-73
2022/05/02 12:16:14;;;;;;;10.40;9.40;;;;;;;;;;5093784;28;20827;-73
2022/05/02 12:18:42;;;;;;;12.00;10.80;;;;;;;;;;5093480;28;20494;-73
2022/05/02 12:21:10;;;;;;;11.57;8.90;;;;;;;;;;5094024;28;20455;-73
2022/05/02 12:23:38;;;;;;;15.87;9.93;;;;;;;;;;5093087;28;20462;-72
2022/05/02 12:26:05;;;;;;;20.20;11.10;;;;;;;;;;5093498;28;20451;-72
2022/05/02 12:28:41;;;;;;;8.20;7.50;;;;;;;;;;5093685;28;21096;-72
2022/05/02 12:31:08;;;;;;;10.10;8.40;;;;;;;;;;5093330;28;20513;-72
2022/05/02 12:33:40;;;;;;;7.87;7.17;;;;;;;;;;5093336;28;20458;-73
2022/05/02 12:36:12;;;;;;;7.80;7.10;;;;;;;;;;5093526;28;20454;-73
2022/05/02 12:38:39;;;;;;;10.80;9.67;;;;;;;;;;5093475;28;20453;-72
2022/05/02 12:41:08;;;;;;;10.13;7.60;;;;;;;;;;5093324;28;20454;-72
2022/05/02 12:43:44;;;;;;;9.13;8.33;;;;;;;;;;5093268;28;20461;-72
2022/05/02 12:46:11;;;;;;;13.33;10.90;;;;;;;;;;5093474;28;20943;-72
2022/05/02 12:48:41;;;;;;;9.83;8.87;;;;;;;;;;5093314;28;20451;-72
2022/05/02 12:51:09;;;;;;;8.80;8.00;;;;;;;;;;5093497;28;20539;-72
2022/05/02 12:56:21;;;;;;;11.67;10.57;;;;;;;;;;5093311;28;20426;-72
2022/05/02 13:01:43;;;;;;;13.47;12.07;;;;;;;;;;5093225;28;20426;-72
2022/05/02 13:04:17;;;;;;;11.43;7.27;;;;;;;;;;5092883;28;20477;-72
2022/05/02 13:06:45;;;;;;;6.20;5.60;;;;;;;;;;5093346;28;20473;-72
2022/05/02 13:09:14;;;;;;;7.00;5.90;;;;;;;;;;5093031;28;20999;-72
2022/05/02 13:11:42;;;;;;;9.67;5.60;;;;;;;;;;5092956;28;20490;-72
2022/05/02 13:14:09;;;;;;;6.33;5.83;;;;;;;;;;5092841;28;20975;-73
2022/05/02 13:16:44;;;;;;;7.00;6.40;;;;;;;;;;5093076;28;20478;-73
2022/05/02 13:19:12;;;;;;;6.60;6.00;;;;;;;;;;5092787;28;20469;-72
2022/05/02 13:21:41;;;;;;;6.80;6.20;;;;;;;;;;5092989;28;20439;-72
2022/05/02 13:24:10;;;;;;;7.37;5.97;;;;;;;;;;5092684;28;20977;-72
2022/05/02 13:26:56;;;;;;;6.33;5.73;;;;;;;;;;5092911;28;20451;-72
2022/05/02 13:29:29;;;;;;;6.40;5.53;;;;;;;;;;5094418;28;20479;-73
2022/05/02 13:31:59;;;;;;;6.43;5.57;;;;;;;;;;5096974;28;20545;-72
2022/05/02 13:34:30;;;;;;;5.70;5.30;;;;;;;;;;5096891;28;20527;-72
2022/05/02 13:37:04;;;;;;;6.23;5.60;;;;;;;;;;5096824;28;20439;-73
2022/05/02 13:39:34;;;;;;;5.50;5.00;;;;;;;;;;5096875;28;20496;-72
2022/05/02 13:42:04;;;;;;;5.93;5.43;;;;;;;;;;5096743;28;20446;-73
2022/05/02 13:44:36;;;;;;;6.90;5.30;;;;;;;;;;5096550;28;20458;-73
2022/05/02 13:47:07;;;;;;;6.20;5.60;;;;;;;;;;5096642;28;20453;-73
2022/05/02 13:49:43;;;;;;;8.70;6.13;;;;;;;;;;5096669;28;20856;-73
2022/05/02 13:52:19;;;;;;;6.33;5.73;;;;;;;;;;5096275;28;20883;-73
2022/05/02 13:54:52;;;;;;;35.80;21.83;;;;;;;;;;5096516;28;20450;-73
2022/05/02 13:57:20;;;;;;;9.60;8.60;;;;;;;;;;5096449;28;20454;-73
2022/05/02 13:59:55;;;;;;;18.90;16.87;;;;;;;;;;5096716;28;20825;-73
2022/05/02 14:02:39;;;;;;;7.47;6.87;;;;;;;;;;5096380;28;20454;-73
2022/05/02 14:05:15;;;;;;;6.93;6.33;;;;;;;;;;5095941;28;20461;-73
2022/05/02 14:07:47;;;;;;;18.20;16.33;;;;;;;;;;5096695;28;20454;-73
2022/05/02 14:10:14;;;;;;;5.90;5.40;;;;;;;;;;5096493;28;21121;-73
2022/05/02 14:12:42;;;;;;;9.60;8.70;;;;;;;;;;5095999;28;20528;-73
2022/05/02 14:15:11;;;;;;;7.70;7.00;;;;;;;;;;5095833;28;20447;-73
2022/05/02 14:17:42;;;;;;;4.87;4.00;;;;;;;;;;5095965;28;20461;-73
2022/05/02 14:20:22;;;;;;;10.03;9.13;;;;;;;;;;5095874;28;20478;-73
2022/05/02 14:22:52;;;;;;;8.53;6.20;;;;;;;;;;5095807;28;20466;-73
2022/05/02 14:25:26;;;;;;;7.30;6.70;;;;;;;;;;5095819;28;20470;-73
2022/05/02 14:27:54;;;;;;;6.57;5.90;;;;;;;;;;5095825;28;20459;-73
2022/05/02 14:30:25;;;;;;;7.93;6.30;;;;;;;;;;5095680;28;20466;-73
2022/05/02 14:32:52;;;;;;;6.90;6.37;;;;;;;;;;5095816;28;20504;-73
2022/05/02 14:35:23;;;;;;;7.57;5.70;;;;;;;;;;5095503;28;20450;-73
2022/05/02 14:37:53;;;;;;;7.40;6.30;;;;;;;;;;5095708;28;20454;-73
2022/05/02 14:40:20;;;;;;;5.73;5.33;;;;;;;;;;5095022;28;20475;-73
2022/05/02 14:42:47;;;;;;;5.43;5.03;;;;;;;;;;5095236;28;20447;-73
2022/05/02 14:45:14;;;;;;;5.97;5.43;;;;;;;;;;5095340;28;20453;-73
2022/05/02 14:47:42;;;;;;;8.90;5.00;;;;;;;;;;5095499;28;20455;-73
2022/05/02 14:50:10;;;;;;;6.80;6.17;;;;;;;;;;5095332;28;20471;-73
2022/05/02 14:52:38;;;;;;;6.97;6.27;;;;;;;;;;5095405;28;20455;-73
2022/05/02 14:55:08;;;;;;;6.50;5.90;;;;;;;;;;5095104;28;20826;-73
2022/05/02 14:57:36;;;;;;;6.07;5.47;;;;;;;;;;5095769;28;20500;-73
2022/05/02 15:00:06;;;;;;;6.33;5.73;;;;;;;;;;5095061;28;20510;-73
2022/05/02 15:02:34;;;;;;;6.40;5.73;;;;;;;;;;5095558;28;20549;-73
2022/05/02 15:05:03;;;;;;;8.73;5.70;;;;;;;;;;5095003;28;20446;-73
2022/05/02 15:07:34;;;;;;;6.20;5.70;;;;;;;;;;5095201;28;20973;-73
2022/05/02 15:10:13;;;;;;;5.50;5.10;;;;;;;;;;5094941;28;20466;-73
2022/05/02 15:12:50;;;;;;;6.30;5.83;;;;;;;;;;5095034;28;20497;-73
2022/05/02 15:15:31;;;;;;;10.70;5.77;;;;;;;;;;5094731;28;20465;-73
2022/05/02 15:18:09;;;;;;;6.87;6.27;;;;;;;;;;5095113;28;20471;-73
2022/05/02 15:20:42;;;;;;;6.20;5.70;;;;;;;;;;5095272;28;20475;-73
2022/05/02 15:23:14;;;;;;;7.83;7.13;;;;;;;;;;5094477;28;20964;-73